Time;durP1;ratioP1;P1;durP2;ratioP2;P2;SDS_P1;SDS_P2;PMS_P1;PMS_P2;Temp;Humidity;BMP_temperature;BMP_pressure;BME280_temperature;BME280_humidity;BME280_pressure;Samples;Min_cycle;Max_cycle;Signal;HPM_P1;HPM_P2
2022/01/20 00:00:52;;;;;;;40.30;15.43;;;0.30;99.90;;;;;;4923245;29;20028;-83
2022/01/20 00:03:22;;;;;;;70.53;18.37;;;0.20;99.90;;;;;;4939279;29;20148;-84
2022/01/20 00:28:11;;;;;;;29.42;13.15;;;0.20;99.90;;;;;;4938709;29;20085;-84
2022/01/20 00:38:22;;;;;;;33.63;14.75;;;0.20;99.90;;;;;;4955857;29;20034;-84
2022/01/20 00:40:49;;;;;;;38.13;14.48;;;0.20;99.90;;;;;;4922881;29;20398;-84
2022/01/20 00:43:15;;;;;;;46.35;16.17;;;0.20;99.90;;;;;;4938413;29;20491;-84
2022/01/20 00:45:48;;;;;;;33.15;14.13;;;0.20;99.90;;;;;;4922515;29;20122;-84
2022/01/20 00:48:14;;;;;;;153.73;21.38;;;0.20;99.90;;;;;;4922735;29;20039;-84
2022/01/20 00:50:39;;;;;;;178.80;23.05;;;0.20;99.90;;;;;;4922493;29;20035;-84
2022/01/20 00:53:05;;;;;;;37.20;16.08;;;0.20;99.90;;;;;;4954357;29;20035;-84
2022/01/20 00:55:31;;;;;;;151.85;26.63;;;0.20;99.90;;;;;;4938506;29;20078;-84
2022/01/20 00:57:57;;;;;;;184.07;41.28;;;0.20;99.90;;;;;;4922409;29;20058;-84
2022/01/20 01:00:23;;;;;;;52.22;23.00;;;0.30;99.90;;;;;;4955396;29;20050;-84
2022/01/20 01:02:49;;;;;;;73.10;21.50;;;0.30;99.90;;;;;;4922434;29;20034;-85
2022/01/20 01:05:14;;;;;;;142.15;27.25;;;0.30;99.90;;;;;;4922371;29;20041;-83
2022/01/20 01:07:58;;;;;;;101.90;21.10;;;0.30;99.90;;;;;;4922576;29;20371;-85
2022/01/20 01:10:30;;;;;;;188.43;27.63;;;0.30;99.90;;;;;;4938358;29;20035;-85
2022/01/20 01:13:08;;;;;;;298.58;32.05;;;0.20;99.90;;;;;;4954194;29;20398;-84
2022/01/20 01:15:39;;;;;;;172.65;28.35;;;0.30;99.90;;;;;;4922361;29;20114;-84
2022/01/20 01:23:36;;;;;;;277.58;33.60;;;0.30;99.90;;;;;;4957903;29;20072;-85
2022/01/20 01:26:05;;;;;;;384.33;37.13;;;0.30;99.90;;;;;;4926251;29;20038;-85
2022/01/20 01:28:32;;;;;;;164.85;24.95;;;0.30;99.90;;;;;;4926190;29;20027;-85
2022/01/20 01:33:54;;;;;;;420.52;43.42;;;0.40;99.90;;;;;;4959075;29;20074;-85
2022/01/20 01:36:22;;;;;;;756.58;64.72;;;0.40;99.90;;;;;;4926082;29;20375;-84
2022/01/20 01:38:48;;;;;;;683.10;65.43;;;0.40;99.90;;;;;;4926058;29;20031;-85
2022/01/20 01:41:25;;;;;;;463.17;45.53;;;0.50;99.90;;;;;;4957922;29;20398;-84
2022/01/20 01:43:52;;;;;;;306.05;37.40;;;0.40;99.90;;;;;;4941722;29;20159;-84
2022/01/20 01:46:18;;;;;;;185.50;31.98;;;0.50;99.90;;;;;;4925783;29;20043;-85
2022/01/20 01:48:45;;;;;;;180.60;30.38;;;0.50;99.90;;;;;;4926013;29;20038;-85
2022/01/20 01:51:12;;;;;;;97.63;27.95;;;0.50;99.90;;;;;;4941669;29;20031;-84
2022/01/20 01:53:41;;;;;;;78.18;27.33;;;0.50;99.90;;;;;;4941780;29;20098;-84
2022/01/20 01:56:07;;;;;;;100.80;32.22;;;0.50;99.90;;;;;;4941469;29;20402;-84
2022/01/20 01:58:36;;;;;;;192.65;37.35;;;0.50;99.90;;;;;;4925995;29;20217;-85
2022/01/20 02:01:11;;;;;;;435.88;50.20;;;0.50;99.90;;;;;;4957325;29;20042;-84
2022/01/20 02:03:45;;;;;;;407.02;51.25;;;0.50;99.90;;;;;;4925558;29;20118;-85
2022/01/20 02:06:48;;;;;;;300.60;36.65;;;0.50;99.90;;;;;;4926382;29;20049;-85
2022/01/20 02:20:13;;;;;;;730.30;72.28;;;0.50;99.90;;;;;;4930427;29;20126;-85
2022/01/20 02:22:51;;;;;;;807.15;80.25;;;0.60;99.90;;;;;;4926504;29;20040;-84
2022/01/20 02:25:31;;;;;;;1121.70;101.25;;;0.60;99.90;;;;;;4940985;29;20506;-85
2022/01/20 02:28:01;;;;;;;1109.40;99.93;;;0.60;99.90;;;;;;4924472;29;20039;-85
2022/01/20 02:30:28;;;;;;;1033.78;91.30;;;0.60;99.90;;;;;;4925253;29;20486;-85
2022/01/20 02:32:56;;;;;;;236.07;36.78;;;0.60;99.90;;;;;;4940959;29;20040;-85
2022/01/20 02:35:24;;;;;;;980.60;90.97;;;0.70;99.90;;;;;;4924918;29;20034;-85
2022/01/20 02:37:58;;;;;;;1200.10;106.38;;;0.70;99.90;;;;;;4925009;29;20657;-85
2022/01/20 02:45:36;;;;;;;680.20;72.72;;;0.70;99.90;;;;;;4940629;29;20039;-84
2022/01/20 02:48:03;;;;;;;259.48;41.20;;;0.70;99.90;;;;;;4924978;29;20619;-85
2022/01/20 02:50:29;;;;;;;287.67;44.03;;;0.70;99.90;;;;;;4940677;29;20031;-84
2022/01/20 02:52:54;;;;;;;328.42;50.65;;;0.70;99.90;;;;;;4956413;29;20061;-84
2022/01/20 02:55:20;;;;;;;556.33;64.28;;;0.70;99.90;;;;;;4924650;29;20031;-84
2022/01/20 02:57:46;;;;;;;670.63;76.03;;;0.80;99.90;;;;;;4924559;29;20035;-84
2022/01/20 03:00:12;;;;;;;532.10;64.50;;;0.80;99.90;;;;;;4940283;29;20062;-84
2022/01/20 03:02:38;;;;;;;1125.97;109.72;;;0.80;99.90;;;;;;4940342;29;20054;-84
2022/01/20 03:05:07;;;;;;;602.55;66.43;;;0.80;99.90;;;;;;4924268;29;20039;-84
2022/01/20 03:07:34;;;;;;;526.58;65.45;;;0.80;99.90;;;;;;4924545;29;20047;-84
2022/01/20 03:10:00;;;;;;;217.25;44.08;;;0.70;99.90;;;;;;4924288;29;20504;-84
2022/01/20 03:12:26;;;;;;;111.10;36.38;;;0.80;99.90;;;;;;4924473;29;20027;-84
2022/01/20 03:14:54;;;;;;;162.98;38.83;;;0.80;99.90;;;;;;4924289;29;20538;-84
2022/01/20 03:17:21;;;;;;;125.63;37.47;;;0.80;99.90;;;;;;4956089;29;20375;-84
2022/01/20 03:19:47;;;;;;;234.70;45.60;;;0.80;99.90;;;;;;4955964;29;20101;-84
2022/01/20 03:22:13;;;;;;;144.88;39.70;;;0.80;99.90;;;;;;4955729;29;20035;-84
2022/01/20 03:24:39;;;;;;;100.65;37.00;;;0.80;99.90;;;;;;4955718;29;20256;-85
2022/01/20 03:27:05;;;;;;;191.18;42.00;;;0.80;99.90;;;;;;4924019;29;20035;-84
2022/01/20 03:29:31;;;;;;;121.47;37.65;;;0.80;99.90;;;;;;4939774;29;20417;-85
2022/01/20 03:31:57;;;;;;;143.43;37.90;;;0.80;99.90;;;;;;4924021;29;20032;-84
2022/01/20 03:34:22;;;;;;;100.28;36.33;;;0.80;99.90;;;;;;4923968;29;20118;-85
2022/01/20 03:36:55;;;;;;;120.00;37.45;;;0.80;99.90;;;;;;4924404;29;20031;-85
2022/01/20 03:39:31;;;;;;;112.93;38.85;;;0.80;99.90;;;;;;4924506;29;20067;-85
2022/01/20 03:41:57;;;;;;;100.80;36.15;;;0.80;99.90;;;;;;4939311;29;20114;-85
2022/01/20 03:44:27;;;;;;;112.63;38.30;;;0.80;99.90;;;;;;4924100;29;20106;-85
2022/01/20 03:46:53;;;;;;;107.25;36.50;;;0.90;99.90;;;;;;4955630;29;20039;-85
2022/01/20 03:49:36;;;;;;;120.40;38.35;;;0.90;99.90;;;;;;4955513;29;20031;-85
2022/01/20 03:52:04;;;;;;;109.82;37.08;;;0.90;99.90;;;;;;4939591;29;20019;-85
2022/01/20 03:54:30;;;;;;;114.07;38.83;;;0.90;99.90;;;;;;4939504;29;20031;-85
2022/01/20 03:57:14;;;;;;;119.32;39.45;;;0.90;99.90;;;;;;4956884;29;20129;-86
2022/01/20 04:00:04;;;;;;;107.57;35.88;;;0.90;99.90;;;;;;4956366;28;20110;-85
2022/01/20 04:02:56;;;;;;;95.88;34.72;;;0.90;99.90;;;;;;4927501;29;20043;-85
2022/01/20 04:05:57;;;;;;;107.25;35.88;;;0.90;99.90;;;;;;4955682;29;20059;-85
2022/01/20 04:08:47;;;;;;;80.25;31.25;;;0.90;99.90;;;;;;4926212;29;20019;-86
2022/01/20 04:11:15;;;;;;;97.97;33.88;;;0.90;99.90;;;;;;4939422;29;20028;-85
2022/01/20 04:13:43;;;;;;;110.53;36.60;;;0.90;99.90;;;;;;4924180;29;20110;-85
2022/01/20 04:16:35;;;;;;;110.55;37.72;;;0.90;99.90;;;;;;4924547;29;20724;-85
2022/01/20 04:19:06;;;;;;;126.30;39.85;;;0.80;99.90;;;;;;4939372;29;20027;-85
2022/01/20 04:21:32;;;;;;;160.73;41.35;;;0.90;99.90;;;;;;4923368;29;20389;-85
2022/01/20 04:24:00;;;;;;;763.25;87.28;;;0.90;99.90;;;;;;4923077;29;20046;-86
2022/01/20 04:26:28;;;;;;;459.33;59.90;;;0.90;99.90;;;;;;4939288;29;20032;-85
2022/01/20 04:28:56;;;;;;;262.52;48.63;;;0.90;99.90;;;;;;4939244;29;20027;-85
2022/01/20 04:31:24;;;;;;;237.20;45.17;;;0.80;99.90;;;;;;4923333;29;20504;-85
2022/01/20 04:33:50;;;;;;;139.73;41.05;;;0.90;99.90;;;;;;4923255;29;20810;-85
2022/01/20 04:36:16;;;;;;;136.63;42.65;;;0.90;99.90;;;;;;4922859;29;20434;-86
2022/01/20 04:38:42;;;;;;;122.95;38.22;;;0.90;99.90;;;;;;4922848;29;20031;-85
2022/01/20 04:41:08;;;;;;;134.82;42.47;;;0.90;99.90;;;;;;4923151;29;20090;-86
2022/01/20 04:43:34;;;;;;;111.45;34.88;;;0.90;99.90;;;;;;4923142;29;20054;-85
2022/01/20 04:46:28;;;;;;;104.78;34.67;;;0.90;99.90;;;;;;4954785;29;20027;-85
2022/01/20 04:57:16;;;;;;;116.35;37.75;;;0.90;99.90;;;;;;4938797;29;20042;-85
2022/01/20 04:59:45;;;;;;;122.05;37.65;;;1.00;99.90;;;;;;4923113;29;20078;-86
2022/01/20 05:02:12;;;;;;;131.40;37.65;;;0.90;99.90;;;;;;4922695;29;20029;-85
2022/01/20 05:04:49;;;;;;;118.95;36.50;;;0.90;99.90;;;;;;4939922;29;20031;-86
2022/01/20 05:07:30;;;;;;;110.95;36.13;;;0.90;99.90;;;;;;4924837;29;20024;-86
2022/01/20 05:09:57;;;;;;;119.38;35.83;;;0.90;99.90;;;;;;4938421;29;20446;-85
2022/01/20 05:12:32;;;;;;;99.32;33.25;;;0.90;99.90;;;;;;4938571;29;20031;-84
2022/01/20 05:15:24;;;;;;;112.43;35.00;;;0.90;99.90;;;;;;4956224;29;20049;-85
2022/01/20 05:17:54;;;;;;;103.90;33.33;;;0.90;99.90;;;;;;4922578;29;20485;-85
2022/01/20 05:20:20;;;;;;;104.35;31.80;;;0.90;99.90;;;;;;4922641;29;20031;-84
2022/01/20 05:22:46;;;;;;;101.75;33.30;;;0.90;99.90;;;;;;4922568;29;20039;-85
2022/01/20 05:25:15;;;;;;;96.03;32.35;;;0.90;99.90;;;;;;4923286;29;20035;-85
2022/01/20 05:27:41;;;;;;;101.85;33.72;;;0.90;99.90;;;;;;4922437;29;20027;-85
2022/01/20 05:30:08;;;;;;;96.03;31.85;;;0.90;99.90;;;;;;4954793;29;20033;-85
2022/01/20 05:32:35;;;;;;;104.68;34.35;;;0.90;99.90;;;;;;4922493;29;20027;-85
2022/01/20 05:35:20;;;;;;;101.65;32.83;;;0.90;99.90;;;;;;4922361;29;20039;-85
2022/01/20 05:37:46;;;;;;;94.97;32.10;;;0.90;99.90;;;;;;4922439;29;20027;-85
2022/01/20 05:40:12;;;;;;;109.47;36.47;;;0.80;99.90;;;;;;4922513;29;20118;-84
2022/01/20 05:42:39;;;;;;;98.22;35.10;;;0.80;99.90;;;;;;4922439;29;20375;-86
2022/01/20 05:45:09;;;;;;;78.57;28.50;;;0.90;99.90;;;;;;4922888;29;20092;-86
2022/01/20 05:47:42;;;;;;;97.97;32.22;;;0.80;99.90;;;;;;4922393;29;20039;-85
2022/01/20 05:50:14;;;;;;;94.55;32.38;;;0.80;99.90;;;;;;4938636;29;20111;-85
2022/01/20 05:52:43;;;;;;;83.25;29.98;;;0.80;99.90;;;;;;4922432;29;20031;-85
2022/01/20 05:55:13;;;;;;;85.18;28.52;;;0.80;99.90;;;;;;4922381;29;20036;-85
2022/01/20 05:57:40;;;;;;;77.00;28.00;;;0.80;99.90;;;;;;4938088;29;20034;-84
2022/01/20 06:00:08;;;;;;;93.65;27.85;;;0.80;99.90;;;;;;4922058;29;20057;-85
2022/01/20 06:05:26;;;;;;;74.70;27.98;;;0.70;99.90;;;;;;4941431;29;20043;-85
2022/01/20 06:07:52;;;;;;;84.22;27.55;;;0.70;99.90;;;;;;4925553;29;20036;-85
2022/01/20 06:10:18;;;;;;;85.90;24.52;;;0.80;99.90;;;;;;4925720;29;20040;-85
2022/01/20 06:12:44;;;;;;;104.40;27.08;;;0.70;99.90;;;;;;4926142;29;20027;-85
2022/01/20 06:15:10;;;;;;;76.93;27.95;;;0.70;99.90;;;;;;4941834;29;20673;-85
2022/01/20 06:17:37;;;;;;;80.05;28.33;;;0.70;99.90;;;;;;4925479;29;20122;-85
2022/01/20 06:20:09;;;;;;;88.80;28.27;;;0.70;99.90;;;;;;4926252;29;20031;-85
2022/01/20 06:22:36;;;;;;;96.65;28.02;;;0.70;99.90;;;;;;4941350;29;20367;-85
2022/01/20 06:25:02;;;;;;;98.57;29.00;;;0.70;99.90;;;;;;4926048;29;20031;-85
2022/01/20 06:27:29;;;;;;;105.88;30.48;;;0.70;99.90;;;;;;4941565;29;20034;-85
2022/01/20 06:29:54;;;;;;;83.13;28.23;;;0.70;99.90;;;;;;4941334;29;20038;-84
2022/01/20 06:32:20;;;;;;;87.43;27.13;;;0.70;99.90;;;;;;4925873;29;20028;-85
2022/01/20 06:34:47;;;;;;;87.38;28.73;;;0.70;99.90;;;;;;4925595;29;20568;-83
2022/01/20 06:37:13;;;;;;;94.50;28.23;;;0.70;99.90;;;;;;4925214;29;20038;-85
2022/01/20 06:39:39;;;;;;;93.47;29.23;;;0.70;99.90;;;;;;4925247;29;20027;-85
2022/01/20 06:42:06;;;;;;;90.60;27.42;;;0.70;99.90;;;;;;4957239;29;20106;-85
2022/01/20 06:44:32;;;;;;;94.68;28.63;;;0.70;99.90;;;;;;4925331;29;20035;-85
2022/01/20 06:46:58;;;;;;;86.35;25.48;;;0.70;99.90;;;;;;4957238;29;20107;-86
2022/01/20 06:49:29;;;;;;;79.15;25.77;;;0.70;99.90;;;;;;4957134;29;20031;-85
2022/01/20 06:52:01;;;;;;;80.63;25.40;;;0.80;99.90;;;;;;4926112;29;20118;-86
2022/01/20 06:54:27;;;;;;;84.72;27.15;;;0.80;99.90;;;;;;4925400;29;20093;-85
2022/01/20 06:56:53;;;;;;;93.95;26.77;;;0.80;99.90;;;;;;4925198;29;20027;-85
2022/01/20 06:59:20;;;;;;;89.43;27.42;;;0.80;99.90;;;;;;4925079;29;20077;-85
2022/01/20 07:01:48;;;;;;;81.38;25.38;;;0.80;99.90;;;;;;4925251;29;20042;-85
2022/01/20 07:04:19;;;;;;;78.88;27.20;;;0.80;99.90;;;;;;4956696;29;20509;-85
2022/01/20 07:06:45;;;;;;;81.38;26.50;;;0.80;99.90;;;;;;4925087;29;20032;-86
2022/01/20 07:09:30;;;;;;;91.78;27.50;;;0.80;99.90;;;;;;4943736;29;20038;-85
2022/01/20 07:12:01;;;;;;;82.68;29.00;;;0.80;99.90;;;;;;4925650;29;20028;-85
2022/01/20 07:14:27;;;;;;;81.03;27.60;;;0.80;99.90;;;;;;4940997;29;20050;-86
2022/01/20 07:16:53;;;;;;;77.43;26.88;;;0.80;99.90;;;;;;4925246;29;20023;-86
2022/01/20 07:19:20;;;;;;;77.05;26.02;;;0.80;99.90;;;;;;4925192;29;20031;-87
2022/01/20 07:21:46;;;;;;;89.47;28.23;;;0.80;99.90;;;;;;4925000;29;20070;-86
2022/01/20 07:24:14;;;;;;;77.95;26.60;;;0.80;99.90;;;;;;4940546;29;20042;-86
2022/01/20 07:26:40;;;;;;;80.63;26.60;;;0.90;99.90;;;;;;4925539;29;20394;-86
2022/01/20 07:29:17;;;;;;;77.70;26.33;;;0.80;99.90;;;;;;4926782;29;20127;-85
2022/01/20 07:31:43;;;;;;;66.25;25.67;;;0.90;99.90;;;;;;4925300;29;20042;-86
2022/01/20 07:34:10;;;;;;;80.72;26.90;;;0.90;99.90;;;;;;4925127;29;20041;-86
2022/01/20 07:36:36;;;;;;;75.47;26.70;;;0.80;99.90;;;;;;4924940;29;20114;-87
2022/01/20 07:39:02;;;;;;;64.70;24.33;;;0.80;99.90;;;;;;4956235;29;20082;-85
2022/01/20 07:41:28;;;;;;;75.80;26.38;;;0.90;99.90;;;;;;4924209;29;20074;-86
2022/01/20 07:43:54;;;;;;;73.35;25.38;;;0.90;99.90;;;;;;4940529;29;20074;-86
2022/01/20 07:46:40;;;;;;;72.40;24.45;;;0.90;99.90;;;;;;4942863;29;20031;-85
2022/01/20 07:49:10;;;;;;;79.25;26.95;;;0.80;99.90;;;;;;4924969;29;20032;-85
2022/01/20 07:51:36;;;;;;;73.35;27.05;;;0.80;99.90;;;;;;4924111;29;20393;-85
2022/01/20 07:54:04;;;;;;;69.22;25.83;;;0.80;99.90;;;;;;4924875;29;20118;-85
2022/01/20 07:56:30;;;;;;;79.30;26.08;;;0.90;99.90;;;;;;4957381;29;20061;-85
2022/01/20 07:58:55;;;;;;;71.30;23.35;;;0.80;99.90;;;;;;4955983;29;20039;-85
2022/01/20 08:01:24;;;;;;;68.80;24.98;;;0.90;99.90;;;;;;4924408;29;20393;-85
2022/01/20 08:03:57;;;;;;;70.38;25.20;;;0.90;99.90;;;;;;4924740;29;20429;-84
2022/01/20 08:06:27;;;;;;;65.88;24.05;;;0.80;99.90;;;;;;4940366;29;20030;-85
2022/01/20 08:09:03;;;;;;;64.03;23.45;;;0.90;99.90;;;;;;4925822;29;20031;-85
2022/01/20 08:11:44;;;;;;;;;;;0.90;99.90;;;;;;4940424;29;20032;-85
2022/01/20 08:14:28;;;;;;;70.40;23.65;;;0.90;99.90;;;;;;4940397;29;19911;-85
2022/01/20 08:16:54;;;;;;;70.55;24.15;;;0.90;99.90;;;;;;4924068;29;20126;-85
2022/01/20 08:19:20;;;;;;;62.50;24.42;;;0.90;99.90;;;;;;4923950;29;20027;-85
2022/01/20 08:21:46;;;;;;;75.03;22.52;;;0.90;99.90;;;;;;4957686;28;20130;-84
2022/01/20 08:24:12;;;;;;;65.97;22.67;;;0.80;99.90;;;;;;4939395;29;20027;-85
2022/01/20 08:26:38;;;;;;;66.70;22.17;;;0.90;99.90;;;;;;4940750;29;20039;-85
2022/01/20 08:29:03;;;;;;;63.50;21.55;;;0.90;99.90;;;;;;4923616;29;20126;-85
2022/01/20 08:31:31;;;;;;;56.28;22.98;;;0.80;99.90;;;;;;4924490;29;20394;-85
2022/01/20 08:34:01;;;;;;;61.90;20.00;;;0.90;99.90;;;;;;4927209;29;20085;-84
2022/01/20 08:36:39;;;;;;;51.13;19.75;;;0.90;99.90;;;;;;4925977;29;20430;-85
2022/01/20 08:41:49;;;;;;;72.90;20.17;;;0.90;99.90;;;;;;4939714;29;20055;-84
2022/01/20 08:44:15;;;;;;;54.67;21.23;;;0.90;99.90;;;;;;4923760;29;20117;-85
2022/01/20 08:46:42;;;;;;;46.78;18.92;;;0.90;99.90;;;;;;4923735;29;20036;-85
2022/01/20 08:49:08;;;;;;;77.80;20.85;;;0.90;99.90;;;;;;4941311;29;20043;-84
2022/01/20 08:51:40;;;;;;;51.13;18.20;;;1.00;99.90;;;;;;4939261;29;20481;-85
2022/01/20 08:54:15;;;;;;;44.45;17.70;;;1.10;99.90;;;;;;4924747;29;20027;-85
2022/01/20 08:56:43;;;;;;;43.15;17.27;;;1.10;99.90;;;;;;4923697;29;20098;-85
2022/01/20 08:59:12;;;;;;;48.78;16.52;;;1.10;99.90;;;;;;4923287;29;20027;-85
2022/01/20 09:01:40;;;;;;;51.55;14.65;;;1.10;99.90;;;;;;4938941;29;20031;-85
2022/01/20 09:04:07;;;;;;;49.60;15.05;;;1.10;99.90;;;;;;4939090;29;20035;-85
2022/01/20 09:06:35;;;;;;;39.70;13.88;;;1.20;99.90;;;;;;4923308;29;20054;-85
2022/01/20 09:09:14;;;;;;;45.15;15.77;;;1.10;99.90;;;;;;4924776;29;20027;-85
2022/01/20 09:11:50;;;;;;;45.33;14.05;;;1.20;99.90;;;;;;4922936;29;20023;-84
2022/01/20 09:17:01;;;;;;;30.90;12.30;;;1.20;99.90;;;;;;4939236;29;20035;-85
2022/01/20 09:19:30;;;;;;;42.53;13.25;;;1.20;99.90;;;;;;4939438;29;20043;-85
2022/01/20 09:21:59;;;;;;;32.00;10.60;;;1.20;99.90;;;;;;4954857;29;20039;-84
2022/01/20 09:24:26;;;;;;;29.85;9.50;;;1.10;99.90;;;;;;4955128;29;20530;-85
2022/01/20 09:26:53;;;;;;;37.53;10.00;;;1.10;99.90;;;;;;4939279;29;20482;-85
2022/01/20 09:29:20;;;;;;;32.28;10.00;;;1.10;99.90;;;;;;4923605;29;20031;-85
2022/01/20 09:31:45;;;;;;;32.50;9.63;;;1.00;99.90;;;;;;4938931;29;20035;-85
2022/01/20 09:34:17;;;;;;;32.83;11.95;;;1.10;99.90;;;;;;4923988;29;20032;-85
2022/01/20 09:36:45;;;;;;;26.63;10.80;;;1.10;99.90;;;;;;4923519;29;20390;-85
2022/01/20 09:39:12;;;;;;;32.78;12.68;;;1.10;99.90;;;;;;4925356;29;20031;-85
2022/01/20 09:41:58;;;;;;;31.50;11.65;;;1.20;99.90;;;;;;4945558;29;20039;-85
2022/01/20 09:44:26;;;;;;;31.15;10.95;;;1.20;99.90;;;;;;4926730;29;20035;-85
2022/01/20 09:46:52;;;;;;;31.80;10.70;;;1.20;99.90;;;;;;4942320;29;20444;-85
2022/01/20 09:49:29;;;;;;;40.97;11.90;;;1.20;99.90;;;;;;4927972;29;20030;-85
2022/01/20 09:51:56;;;;;;;37.20;12.57;;;1.20;99.90;;;;;;4958079;29;20090;-85
2022/01/20 09:54:42;;;;;;;25.15;10.30;;;1.20;99.90;;;;;;4959700;28;20108;-85
2022/01/20 09:57:10;;;;;;;34.40;11.18;;;1.20;99.90;;;;;;4942365;29;20062;-85
2022/01/20 09:59:38;;;;;;;37.33;10.85;;;1.20;99.90;;;;;;4926313;29;20594;-84
2022/01/20 10:02:08;;;;;;;36.22;11.52;;;1.20;99.90;;;;;;4926318;29;20035;-85
2022/01/20 10:04:37;;;;;;;37.10;11.07;;;1.10;99.90;;;;;;4926247;29;20442;-85
2022/01/20 10:07:22;;;;;;;32.72;10.70;;;1.20;99.90;;;;;;4945226;29;20041;-85
2022/01/20 10:09:55;;;;;;;39.13;11.85;;;1.20;99.90;;;;;;4958361;29;20024;-85
2022/01/20 10:12:44;;;;;;;42.35;10.65;;;1.20;99.90;;;;;;4958855;29;20114;-85
2022/01/20 10:15:12;;;;;;;36.80;10.77;;;1.20;99.90;;;;;;4942147;29;20754;-85
2022/01/20 10:17:38;;;;;;;20.83;10.68;;;1.30;99.90;;;;;;4944338;29;20043;-85
2022/01/20 10:20:07;;;;;;;29.58;11.60;;;1.30;99.90;;;;;;4942286;29;20028;-84
2022/01/20 10:22:41;;;;;;;27.23;11.38;;;1.30;99.90;;;;;;4941777;29;20422;-84
2022/01/20 10:25:19;;;;;;;31.33;10.63;;;1.20;99.90;;;;;;4927161;29;20508;-85
2022/01/20 10:27:54;;;;;;;35.33;10.48;;;1.10;99.90;;;;;;4941741;29;20082;-84
2022/01/20 10:30:25;;;;;;;28.75;8.45;;;1.00;99.90;;;;;;4925710;29;20038;-84
2022/01/20 10:32:56;;;;;;;25.48;8.77;;;1.00;99.90;;;;;;4941607;29;20034;-84
2022/01/20 10:35:32;;;;;;;37.95;10.30;;;1.00;99.90;;;;;;4925196;29;20031;-85
2022/01/20 10:38:09;;;;;;;30.17;10.70;;;1.10;99.90;;;;;;4941234;29;20031;-85
2022/01/20 10:40:50;;;;;;;22.10;8.13;;;1.20;99.90;;;;;;4925494;29;20517;-85
2022/01/20 10:43:32;;;;;;;21.65;7.35;;;1.10;99.90;;;;;;4924995;29;20094;-84
2022/01/20 10:46:08;;;;;;;25.95;6.15;;;1.10;99.90;;;;;;4925870;29;20031;-84
2022/01/20 10:48:34;;;;;;;16.92;6.30;;;1.20;99.90;;;;;;4925385;28;20031;-85
2022/01/20 10:51:13;;;;;;;27.85;6.28;;;1.20;99.90;;;;;;4943059;29;20031;-84
2022/01/20 10:53:40;;;;;;;22.13;5.70;;;1.30;99.90;;;;;;4941074;29;20047;-85
2022/01/20 10:56:07;;;;;;;23.67;5.70;;;1.30;99.90;;;;;;4957443;29;20038;-85
2022/01/20 10:58:34;;;;;;;15.38;4.28;;;1.40;99.90;;;;;;4925606;29;20069;-84
2022/01/20 11:01:04;;;;;;;22.35;4.93;;;1.40;99.90;;;;;;4941340;29;20031;-85
2022/01/20 11:03:32;;;;;;;16.33;4.40;;;1.40;99.90;;;;;;4942962;29;20058;-84
2022/01/20 11:05:59;;;;;;;16.27;4.43;;;1.50;99.90;;;;;;4925494;29;20505;-85
2022/01/20 11:08:39;;;;;;;12.95;3.55;;;1.60;99.90;;;;;;4941288;29;20520;-84
2022/01/20 11:11:05;;;;;;;13.80;3.72;;;1.80;99.90;;;;;;4924901;29;20037;-85
2022/01/20 11:13:45;;;;;;;18.52;3.22;;;1.80;99.90;;;;;;4925868;29;20035;-84
2022/01/20 11:16:12;;;;;;;13.60;3.70;;;1.80;99.90;;;;;;4940803;29;20035;-85
2022/01/20 11:18:42;;;;;;;16.48;4.75;;;1.80;99.90;;;;;;4924764;29;20091;-84
2022/01/20 11:21:08;;;;;;;14.25;3.65;;;1.90;99.90;;;;;;4924699;29;20122;-84
2022/01/20 11:23:42;;;;;;;14.90;3.22;;;1.90;99.90;;;;;;4924682;29;20050;-85
2022/01/20 11:26:34;;;;;;;10.55;2.92;;;2.00;99.90;;;;;;4934726;29;20031;-85
2022/01/20 11:29:46;;;;;;;;;;;2.00;99.90;;;;;;4939333;29;20035;-85
2022/01/20 11:33:00;;;;;;;12.88;3.65;;;2.00;99.90;;;;;;4950146;29;19989;-84
2022/01/20 11:35:59;;;;;;;13.00;2.90;;;2.10;99.90;;;;;;4927539;29;20039;-85
2022/01/20 11:38:47;;;;;;;15.15;2.40;;;2.00;99.90;;;;;;4940411;29;20486;-85
2022/01/20 11:41:14;;;;;;;11.38;3.13;;;2.00;99.90;;;;;;4924601;29;20059;-84
2022/01/20 11:43:43;;;;;;;13.52;4.30;;;2.20;99.90;;;;;;4939546;29;20038;-85
2022/01/20 11:46:25;;;;;;;10.82;2.92;;;2.60;99.90;;;;;;4939966;29;20034;-83
2022/01/20 11:49:06;;;;;;;11.60;3.40;;;2.40;99.90;;;;;;4940072;29;20509;-85
2022/01/20 11:51:50;;;;;;;13.80;3.28;;;2.30;99.90;;;;;;4942644;29;20043;-85
2022/01/20 11:54:33;;;;;;;13.00;3.53;;;2.10;99.90;;;;;;4926283;29;20390;-85
2022/01/20 11:57:11;;;;;;;11.07;3.03;;;2.00;99.90;;;;;;4942392;29;20096;-84
2022/01/20 11:59:55;;;;;;;13.38;3.08;;;2.00;99.90;;;;;;4924307;29;20046;-84
2022/01/20 12:02:38;;;;;;;15.85;2.90;;;2.20;99.90;;;;;;4923387;29;20033;-84
2022/01/20 12:05:30;;;;;;;19.05;5.03;;;2.20;99.90;;;;;;4947335;29;20043;-85
2022/01/20 12:08:18;;;;;;;12.48;3.20;;;2.40;99.90;;;;;;4953419;28;20035;-85
2022/01/20 12:11:00;;;;;;;18.98;3.03;;;2.40;99.90;;;;;;4924114;29;20038;-85
2022/01/20 12:13:27;;;;;;;18.95;6.22;;;2.30;99.90;;;;;;4939846;29;20031;-85
2022/01/20 12:15:57;;;;;;;19.42;3.20;;;2.20;99.90;;;;;;4924330;29;20379;-84
2022/01/20 12:18:23;;;;;;;13.90;3.20;;;2.00;99.90;;;;;;4924048;29;20031;-84
2022/01/20 12:20:49;;;;;;;17.77;4.07;;;1.90;99.90;;;;;;4923829;29;20031;-84
2022/01/20 12:23:16;;;;;;;10.60;3.05;;;1.90;99.90;;;;;;4923976;29;20039;-85
2022/01/20 12:25:42;;;;;;;21.60;4.22;;;1.90;99.90;;;;;;4924152;29;20035;-85
2022/01/20 12:28:10;;;;;;;10.38;3.15;;;1.70;99.90;;;;;;4923880;29;20083;-84
2022/01/20 12:30:40;;;;;;;18.00;3.20;;;1.60;99.90;;;;;;4924135;29;20027;-85
2022/01/20 12:33:10;;;;;;;21.05;4.07;;;1.60;99.90;;;;;;4923989;29;20307;-84
2022/01/20 12:35:41;;;;;;;17.98;5.05;;;1.60;99.90;;;;;;4924079;29;20069;-85
2022/01/20 12:38:22;;;;;;;16.33;3.92;;;1.50;99.90;;;;;;4923893;29;20047;-86
2022/01/20 12:41:04;;;;;;;19.27;4.30;;;1.40;99.90;;;;;;4923340;29;20090;-84
2022/01/20 12:43:53;;;;;;;17.00;3.95;;;1.30;99.90;;;;;;4923174;29;20035;-83
2022/01/20 12:46:25;;;;;;;14.18;3.67;;;1.30;99.90;;;;;;4940122;29;20027;-84
2022/01/20 12:49:12;;;;;;;11.43;3.28;;;1.30;99.90;;;;;;4924113;29;20118;-86
2022/01/20 12:51:42;;;;;;;11.05;5.25;;;1.40;99.90;;;;;;4939557;29;20035;-85
2022/01/20 12:54:26;;;;;;;6.75;2.97;;;1.50;99.90;;;;;;4923633;29;20077;-84
2022/01/20 12:56:54;;;;;;;13.05;2.83;;;1.40;99.90;;;;;;4939491;29;20130;-85
2022/01/20 12:59:29;;;;;;;14.00;3.35;;;1.40;99.90;;;;;;4923276;29;20453;-85
2022/01/20 13:02:00;;;;;;;17.92;3.25;;;1.40;99.90;;;;;;4939695;29;20039;-85
2022/01/20 13:04:29;;;;;;;18.90;3.53;;;1.40;99.90;;;;;;4940057;29;20070;-85
2022/01/20 13:06:59;;;;;;;10.05;3.58;;;1.40;99.90;;;;;;4923968;29;20026;-85
2022/01/20 13:09:52;;;;;;;18.58;3.50;;;1.40;99.90;;;;;;4924333;29;20035;-84
2022/01/20 13:12:35;;;;;;;14.35;3.60;;;1.50;99.90;;;;;;4923453;29;20027;-85
2022/01/20 13:15:03;;;;;;;11.05;3.10;;;1.60;99.90;;;;;;4941031;29;20042;-84
2022/01/20 13:17:32;;;;;;;13.85;3.33;;;1.60;99.90;;;;;;4924012;29;20171;-85
2022/01/20 13:19:59;;;;;;;12.23;3.28;;;1.70;99.90;;;;;;4939347;29;20024;-86
2022/01/20 13:22:38;;;;;;;12.88;2.70;;;1.80;99.90;;;;;;4923613;29;20122;-85
2022/01/20 13:25:08;;;;;;;9.98;2.63;;;1.90;99.90;;;;;;4939927;29;20508;-85
2022/01/20 13:27:36;;;;;;;15.52;2.72;;;1.90;99.90;;;;;;4923292;29;20030;-85
2022/01/20 13:30:04;;;;;;;11.32;3.70;;;1.80;99.90;;;;;;4939777;29;20058;-84
2022/01/20 13:32:29;;;;;;;16.15;3.05;;;1.80;99.90;;;;;;4939205;29;20541;-85
2022/01/20 13:35:01;;;;;;;23.63;8.45;;;1.90;99.90;;;;;;4956538;29;20032;-85
2022/01/20 13:37:30;;;;;;;15.52;4.88;;;2.00;99.90;;;;;;4923595;29;20039;-85
2022/01/20 13:39:57;;;;;;;19.30;4.93;;;2.00;99.90;;;;;;4923443;29;20027;-85
2022/01/20 13:45:02;;;;;;;28.23;8.15;;;1.90;99.90;;;;;;4923067;29;20031;-85
2022/01/20 13:45:43;;;;;;;21.95;5.18;;;1.90;99.90;;;;;;4938924;29;20486;-85
2022/01/20 13:48:12;;;;;;;18.52;5.97;;;1.90;99.90;;;;;;4923734;29;20039;-85
2022/01/20 13:50:44;;;;;;;22.55;6.07;;;1.90;99.90;;;;;;4923881;29;20039;-85
2022/01/20 13:53:16;;;;;;;22.88;6.00;;;1.90;99.90;;;;;;4939246;29;20528;-85
2022/01/20 13:55:47;;;;;;;22.77;5.93;;;1.80;99.90;;;;;;4923277;29;20553;-85
2022/01/20 13:58:27;;;;;;;20.90;5.85;;;1.70;99.90;;;;;;4939232;29;20038;-85
2022/01/20 14:00:55;;;;;;;14.73;3.60;;;1.50;99.90;;;;;;4923603;29;20482;-84
2022/01/20 14:03:22;;;;;;;15.25;3.65;;;1.40;99.90;;;;;;4923179;29;20023;-84
2022/01/20 14:05:49;;;;;;;11.93;3.22;;;1.30;99.90;;;;;;4939111;29;20134;-85
2022/01/20 14:08:15;;;;;;;20.70;6.28;;;1.20;99.90;;;;;;4939403;29;20083;-85
2022/01/20 14:10:41;;;;;;;16.80;4.47;;;1.20;99.90;;;;;;4939853;29;20023;-84